Edwards Crossroads, North Carolina
Current Conditions -  °F | °C
As of 10:55 PM on Saturday 24 Jan 2015 (Local Time) from KGEV Reporting Station
Scattered Clouds Scattered Clouds  
Wind Chill: -9°   Ceiling: Unl
Heat Index:   Visibility: 10mi
Dew Point: -5°   Wind: 35mph
Humidity: 69%   Direction: 300°WNW
Pressure: 29.69"   Gusts: 48mph
Location:  36.5212°N, 81.1574°W
Report Text: KGEV 250355Z AUTO 30030G42KT 10SM SCT020 00/M05 A2969 RMK AO2 T10011052
Loading
Personal Weather Stations






























Interactive Weather Map New forecast layout! Learn more

10-Day Weather Forecast

Advertisements
Track Severe Weather on mobile